الصفحة الرئيسية
METAR-TAF:

METAR-TAF

مطار :

Sandakan, ماليزيا

دائرة عرض: 05-54N, خط طول: 118-04E, ارتفاع: 12 متر

مراقبة الطقس الحالي

تاريخ ووقت الإصدار 1ساعة و 7 دقيقة قبل الساعة 13:00UTC
ريح 4 عقدة من الشرق/الشمال الشرقي, الاتجاه يتراوح بين الشمال/الشمال الشرقي و الجنوب الشرقي
درجة الحرارة 28°درجة مئوية
الرطوبة 84%
ضغط 1012 hPa
الرؤية 10 كم أو أكثر
غيوم قليلة على ارتفاع 1600 قدم

METAR: WBKS 101300Z 06004KT 020V130 9999 FEW016 28/25 Q1012

زمن: 22:07 (14:07 UTC)

توقعات

تاريخ ووقت الإصدار 3ساعات و 7 دقيقة قبل الساعة 11:00UTC
التوقعات صالحة من10 الساعة 12 UTC إلى 11 الساعة 12 UTC
ريح 8 عقدة من الشرق/الشمال الشرقي
الرؤية 10 كم أو أكثر
غيوم قليلة على ارتفاع 1600 قدم
نظرية الاحتمالات 30% :
مؤقت
من 10 الساعة 19 UTC إلى 10 الساعة 23 UTC
الرؤية: 5000 متر
غيوم قليلة على ارتفاع 1200 قدم
غيوم متفرقة على ارتفاع 4000 قدم
مطر

TAF: WBKS 101100Z 1012/1112 07008KT 9999 FEW016 PROB30 TEMPO 1019/1023 5000 RA FEW012 SCT040

أرصاد الطقس والتوقعات من أكثر من 4000 مطار (تقارير الطقس للمطار METAR والتنبؤ بالطقس بالمطارTAF).

المحطات المتاحة هي النقط الصفراء والحمراء على الخريطة.

حرك المؤشر فوق النقطة لمعرفة اسم المحطة.

ثم انقر لمعرفة أرصاد وتوقعات الطقس.

لتغيير الخارطة: اضغط على الأزرار الخضراء مع رمز الصليب الأسود للتكبير. على الزر الأخضر مع شرطة للتصغير، أو على الأسهم الخضراء للخرائط المجاورة.


METAR-TAF: